< < Back
Terminal Aerodrome Forecast


Current Version              Previous Versions:   1  2  3  4  5  6  7  8  9  

Terminal Aerodrome Forecast

457
FTUS42 KGSP 021000 AAA
TAFHKY
TAF AMD
KHKY 021029Z 0210/0306 00000KT P6SM SCT250
      TEMPO 0211/0213 5SM BR
     FM021300 25003KT P6SM FEW060
     FM022000 25005KT P6SM BKN060 PROB30 0220/0302 4SM TSRA BKN040CB
     FM030200 26003KT P6SM BKN060 PROB30 0302/0306 4SM TSRA
      BKN040CB=



Latest METAR

312
SAUS70 KWBC 021700 RRA
MTRHKY
METAR KHKY 021653Z 23005KT 10SM CLR 31/19 A3008 RMK AO2 SLP162
T03110194


USA.gov is the U.S. government's official web portal to all federal, state and local government web resources and services.